sensor_id;sensor_type;location;lat;lon;timestamp;P1;durP1;ratioP1;P2;durP2;ratioP2
58926;SDS011;44712;52.530;9.760;2022-08-30T00:01:04;1.98;;;1.77;;
58926;SDS011;44712;52.530;9.760;2022-08-30T00:03:33;3.10;;;2.55;;
58926;SDS011;44712;52.530;9.760;2022-08-30T00:06:15;1.70;;;1.60;;
58926;SDS011;44712;52.530;9.760;2022-08-30T00:08:44;3.22;;;2.15;;
58926;SDS011;44712;52.530;9.760;2022-08-30T00:11:12;2.83;;;2.00;;
58926;SDS011;44712;52.530;9.760;2022-08-30T00:13:41;2.33;;;2.00;;
58926;SDS011;44712;52.530;9.760;2022-08-30T00:16:10;2.78;;;2.10;;
58926;SDS011;44712;52.530;9.760;2022-08-30T00:18:38;2.75;;;2.50;;
58926;SDS011;44712;52.530;9.760;2022-08-30T00:21:05;2.45;;;2.25;;
58926;SDS011;44712;52.530;9.760;2022-08-30T00:23:33;2.38;;;2.17;;
58926;SDS011;44712;52.530;9.760;2022-08-30T00:25:59;2.95;;;2.17;;
58926;SDS011;44712;52.530;9.760;2022-08-30T00:28:28;2.92;;;2.38;;
58926;SDS011;44712;52.530;9.760;2022-08-30T00:30:55;3.50;;;3.00;;
58926;SDS011;44712;52.530;9.760;2022-08-30T00:33:22;5.55;;;3.03;;
58926;SDS011;44712;52.530;9.760;2022-08-30T00:35:49;2.35;;;2.15;;
58926;SDS011;44712;52.530;9.760;2022-08-30T00:38:15;2.40;;;2.20;;
58926;SDS011;44712;52.530;9.760;2022-08-30T00:40:42;4.00;;;2.50;;
58926;SDS011;44712;52.530;9.760;2022-08-30T00:43:19;2.72;;;2.53;;
58926;SDS011;44712;52.530;9.760;2022-08-30T00:45:53;3.15;;;2.58;;
58926;SDS011;44712;52.530;9.760;2022-08-30T00:48:20;3.38;;;2.70;;
58926;SDS011;44712;52.530;9.760;2022-08-30T00:50:49;2.88;;;2.58;;
58926;SDS011;44712;52.530;9.760;2022-08-30T00:53:21;3.13;;;2.30;;
58926;SDS011;44712;52.530;9.760;2022-08-30T00:55:50;2.90;;;2.40;;
58926;SDS011;44712;52.530;9.760;2022-08-30T00:58:20;2.70;;;2.50;;
58926;SDS011;44712;52.530;9.760;2022-08-30T01:00:51;3.10;;;2.60;;
58926;SDS011;44712;52.530;9.760;2022-08-30T01:03:20;2.90;;;2.50;;
58926;SDS011;44712;52.530;9.760;2022-08-30T01:05:48;2.85;;;2.40;;
58926;SDS011;44712;52.530;9.760;2022-08-30T01:08:17;2.60;;;2.40;;
58926;SDS011;44712;52.530;9.760;2022-08-30T01:10:48;2.83;;;2.40;;
58926;SDS011;44712;52.530;9.760;2022-08-30T01:13:17;3.25;;;2.60;;
58926;SDS011;44712;52.530;9.760;2022-08-30T01:15:47;3.20;;;2.88;;
58926;SDS011;44712;52.530;9.760;2022-08-30T01:18:14;4.20;;;2.70;;
58926;SDS011;44712;52.530;9.760;2022-08-30T01:20:47;3.72;;;3.00;;
58926;SDS011;44712;52.530;9.760;2022-08-30T01:23:16;6.20;;;3.80;;
58926;SDS011;44712;52.530;9.760;2022-08-30T01:25:48;5.07;;;3.63;;
58926;SDS011;44712;52.530;9.760;2022-08-30T01:28:17;6.47;;;3.95;;
58926;SDS011;44712;52.530;9.760;2022-08-30T01:30:46;5.25;;;4.18;;
58926;SDS011;44712;52.530;9.760;2022-08-30T01:33:14;4.80;;;4.00;;
58926;SDS011;44712;52.530;9.760;2022-08-30T01:38:20;6.72;;;4.43;;
58926;SDS011;44712;52.530;9.760;2022-08-30T01:40:49;5.10;;;4.47;;
58926;SDS011;44712;52.530;9.760;2022-08-30T01:43:21;4.55;;;4.03;;
58926;SDS011;44712;52.530;9.760;2022-08-30T01:45:48;4.40;;;3.05;;
58926;SDS011;44712;52.530;9.760;2022-08-30T01:48:15;5.57;;;3.28;;
58926;SDS011;44712;52.530;9.760;2022-08-30T01:50:41;6.22;;;3.78;;
58926;SDS011;44712;52.530;9.760;2022-08-30T01:53:08;6.10;;;4.22;;
58926;SDS011;44712;52.530;9.760;2022-08-30T01:55:38;4.45;;;3.70;;
58926;SDS011;44712;52.530;9.760;2022-08-30T01:58:05;4.50;;;3.58;;
58926;SDS011;44712;52.530;9.760;2022-08-30T02:00:32;4.53;;;3.83;;
58926;SDS011;44712;52.530;9.760;2022-08-30T02:02:59;3.85;;;3.45;;
58926;SDS011;44712;52.530;9.760;2022-08-30T02:05:26;3.85;;;3.38;;
58926;SDS011;44712;52.530;9.760;2022-08-30T02:07:52;4.70;;;3.45;;
58926;SDS011;44712;52.530;9.760;2022-08-30T02:10:19;4.85;;;3.65;;
58926;SDS011;44712;52.530;9.760;2022-08-30T02:12:46;4.38;;;3.72;;
58926;SDS011;44712;52.530;9.760;2022-08-30T02:15:13;4.72;;;3.63;;
58926;SDS011;44712;52.530;9.760;2022-08-30T02:17:41;4.47;;;4.07;;
58926;SDS011;44712;52.530;9.760;2022-08-30T02:20:08;4.30;;;3.90;;
58926;SDS011;44712;52.530;9.760;2022-08-30T02:22:36;5.38;;;3.60;;
58926;SDS011;44712;52.530;9.760;2022-08-30T02:25:04;4.47;;;3.80;;
58926;SDS011;44712;52.530;9.760;2022-08-30T02:27:41;5.05;;;4.13;;
58926;SDS011;44712;52.530;9.760;2022-08-30T02:30:08;7.35;;;4.93;;
58926;SDS011;44712;52.530;9.760;2022-08-30T02:32:36;6.15;;;4.65;;
58926;SDS011;44712;52.530;9.760;2022-08-30T02:35:02;5.93;;;5.03;;
58926;SDS011;44712;52.530;9.760;2022-08-30T02:37:29;5.03;;;4.53;;
58926;SDS011;44712;52.530;9.760;2022-08-30T02:39:56;7.10;;;4.80;;
58926;SDS011;44712;52.530;9.760;2022-08-30T02:42:23;6.43;;;5.13;;
58926;SDS011;44712;52.530;9.760;2022-08-30T02:44:49;5.53;;;4.50;;
58926;SDS011;44712;52.530;9.760;2022-08-30T02:47:16;5.43;;;4.47;;
58926;SDS011;44712;52.530;9.760;2022-08-30T02:49:43;5.38;;;4.70;;
58926;SDS011;44712;52.530;9.760;2022-08-30T02:52:09;6.00;;;5.22;;
58926;SDS011;44712;52.530;9.760;2022-08-30T02:54:36;5.63;;;4.53;;
58926;SDS011;44712;52.530;9.760;2022-08-30T02:57:03;6.13;;;4.60;;
58926;SDS011;44712;52.530;9.760;2022-08-30T02:59:32;5.43;;;4.80;;
58926;SDS011;44712;52.530;9.760;2022-08-30T03:02:00;6.18;;;5.10;;
58926;SDS011;44712;52.530;9.760;2022-08-30T03:04:27;8.30;;;5.53;;
58926;SDS011;44712;52.530;9.760;2022-08-30T03:06:53;5.85;;;5.05;;
58926;SDS011;44712;52.530;9.760;2022-08-30T03:09:20;6.20;;;5.13;;
58926;SDS011;44712;52.530;9.760;2022-08-30T03:11:47;6.22;;;5.13;;
58926;SDS011;44712;52.530;9.760;2022-08-30T03:14:14;5.30;;;4.80;;
58926;SDS011;44712;52.530;9.760;2022-08-30T03:16:40;5.80;;;4.68;;
58926;SDS011;44712;52.530;9.760;2022-08-30T03:19:07;7.97;;;5.80;;
58926;SDS011;44712;52.530;9.760;2022-08-30T03:21:35;8.13;;;5.65;;
58926;SDS011;44712;52.530;9.760;2022-08-30T03:24:02;6.30;;;5.70;;
58926;SDS011;44712;52.530;9.760;2022-08-30T03:26:29;6.53;;;5.00;;
58926;SDS011;44712;52.530;9.760;2022-08-30T03:28:56;6.45;;;4.72;;
58926;SDS011;44712;52.530;9.760;2022-08-30T03:31:22;6.95;;;5.10;;
58926;SDS011;44712;52.530;9.760;2022-08-30T03:33:49;6.75;;;5.10;;
58926;SDS011;44712;52.530;9.760;2022-08-30T03:36:16;5.30;;;3.92;;
58926;SDS011;44712;52.530;9.760;2022-08-30T03:38:42;5.18;;;4.13;;
58926;SDS011;44712;52.530;9.760;2022-08-30T03:41:09;5.10;;;4.35;;
58926;SDS011;44712;52.530;9.760;2022-08-30T03:43:36;6.90;;;4.55;;
58926;SDS011;44712;52.530;9.760;2022-08-30T03:46:04;5.05;;;4.50;;
58926;SDS011;44712;52.530;9.760;2022-08-30T03:48:33;5.65;;;4.18;;
58926;SDS011;44712;52.530;9.760;2022-08-30T03:51:01;6.55;;;5.80;;
58926;SDS011;44712;52.530;9.760;2022-08-30T03:53:31;5.95;;;5.00;;
58926;SDS011;44712;52.530;9.760;2022-08-30T03:55:58;5.47;;;4.40;;
58926;SDS011;44712;52.530;9.760;2022-08-30T03:58:25;5.00;;;4.28;;
58926;SDS011;44712;52.530;9.760;2022-08-30T04:00:51;8.43;;;4.70;;
58926;SDS011;44712;52.530;9.760;2022-08-30T04:03:18;4.53;;;4.10;;
58926;SDS011;44712;52.530;9.760;2022-08-30T04:05:51;5.03;;;4.33;;
58926;SDS011;44712;52.530;9.760;2022-08-30T04:08:19;5.68;;;5.07;;
58926;SDS011;44712;52.530;9.760;2022-08-30T04:10:46;5.45;;;4.88;;
58926;SDS011;44712;52.530;9.760;2022-08-30T04:13:13;6.95;;;5.28;;
58926;SDS011;44712;52.530;9.760;2022-08-30T04:15:41;5.15;;;4.65;;
58926;SDS011;44712;52.530;9.760;2022-08-30T04:18:08;7.28;;;5.18;;
58926;SDS011;44712;52.530;9.760;2022-08-30T04:20:35;6.25;;;4.82;;
58926;SDS011;44712;52.530;9.760;2022-08-30T04:23:03;6.05;;;5.05;;
58926;SDS011;44712;52.530;9.760;2022-08-30T04:25:35;7.28;;;4.55;;
58926;SDS011;44712;52.530;9.760;2022-08-30T04:28:03;6.30;;;4.82;;
58926;SDS011;44712;52.530;9.760;2022-08-30T04:30:31;5.70;;;4.50;;
58926;SDS011;44712;52.530;9.760;2022-08-30T04:32:58;5.03;;;4.50;;
58926;SDS011;44712;52.530;9.760;2022-08-30T04:35:25;6.13;;;4.95;;
58926;SDS011;44712;52.530;9.760;2022-08-30T04:37:52;7.43;;;5.20;;
58926;SDS011;44712;52.530;9.760;2022-08-30T04:40:21;8.13;;;5.95;;
58926;SDS011;44712;52.530;9.760;2022-08-30T04:42:48;6.82;;;5.47;;
58926;SDS011;44712;52.530;9.760;2022-08-30T04:45:19;7.45;;;5.82;;
58926;SDS011;44712;52.530;9.760;2022-08-30T04:47:46;8.93;;;6.50;;
58926;SDS011;44712;52.530;9.760;2022-08-30T04:50:14;8.15;;;5.53;;
58926;SDS011;44712;52.530;9.760;2022-08-30T04:52:43;8.07;;;6.07;;
58926;SDS011;44712;52.530;9.760;2022-08-30T04:55:10;8.45;;;6.10;;
58926;SDS011;44712;52.530;9.760;2022-08-30T04:57:46;9.97;;;6.67;;
58926;SDS011;44712;52.530;9.760;2022-08-30T05:00:13;8.57;;;5.95;;
58926;SDS011;44712;52.530;9.760;2022-08-30T05:02:40;11.77;;;6.65;;
58926;SDS011;44712;52.530;9.760;2022-08-30T05:05:08;10.95;;;7.07;;
58926;SDS011;44712;52.530;9.760;2022-08-30T05:07:54;10.98;;;6.68;;
58926;SDS011;44712;52.530;9.760;2022-08-30T05:10:21;11.48;;;6.43;;
58926;SDS011;44712;52.530;9.760;2022-08-30T05:12:48;12.10;;;7.10;;
58926;SDS011;44712;52.530;9.760;2022-08-30T05:15:15;10.45;;;6.82;;
58926;SDS011;44712;52.530;9.760;2022-08-30T05:17:44;11.00;;;7.60;;
58926;SDS011;44712;52.530;9.760;2022-08-30T05:20:11;11.43;;;6.80;;
58926;SDS011;44712;52.530;9.760;2022-08-30T05:22:39;11.55;;;7.10;;
58926;SDS011;44712;52.530;9.760;2022-08-30T05:25:19;10.63;;;6.97;;
58926;SDS011;44712;52.530;9.760;2022-08-30T05:27:47;14.98;;;8.05;;
58926;SDS011;44712;52.530;9.760;2022-08-30T05:30:15;13.13;;;7.10;;
58926;SDS011;44712;52.530;9.760;2022-08-30T05:32:42;10.65;;;6.65;;
58926;SDS011;44712;52.530;9.760;2022-08-30T05:35:09;10.68;;;6.45;;
58926;SDS011;44712;52.530;9.760;2022-08-30T05:37:38;10.52;;;6.68;;
58926;SDS011;44712;52.530;9.760;2022-08-30T05:40:05;8.65;;;6.53;;
58926;SDS011;44712;52.530;9.760;2022-08-30T05:42:36;8.50;;;5.82;;
58926;SDS011;44712;52.530;9.760;2022-08-30T05:45:06;10.45;;;6.32;;
58926;SDS011;44712;52.530;9.760;2022-08-30T05:47:34;7.65;;;6.13;;
58926;SDS011;44712;52.530;9.760;2022-08-30T05:50:01;8.70;;;6.35;;
58926;SDS011;44712;52.530;9.760;2022-08-30T05:52:28;11.90;;;6.53;;
58926;SDS011;44712;52.530;9.760;2022-08-30T05:54:55;13.00;;;7.72;;
58926;SDS011;44712;52.530;9.760;2022-08-30T05:57:25;11.35;;;6.80;;
58926;SDS011;44712;52.530;9.760;2022-08-30T05:59:52;11.43;;;7.70;;
58926;SDS011;44712;52.530;9.760;2022-08-30T06:02:18;13.02;;;7.93;;
58926;SDS011;44712;52.530;9.760;2022-08-30T06:04:45;18.98;;;8.52;;
58926;SDS011;44712;52.530;9.760;2022-08-30T06:07:14;17.52;;;7.78;;
58926;SDS011;44712;52.530;9.760;2022-08-30T06:09:46;15.05;;;7.30;;
58926;SDS011;44712;52.530;9.760;2022-08-30T06:12:12;13.75;;;7.95;;
58926;SDS011;44712;52.530;9.760;2022-08-30T06:14:39;12.45;;;7.38;;
58926;SDS011;44712;52.530;9.760;2022-08-30T06:17:06;17.25;;;7.88;;
58926;SDS011;44712;52.530;9.760;2022-08-30T06:19:33;13.23;;;7.32;;
58926;SDS011;44712;52.530;9.760;2022-08-30T06:21:59;13.65;;;7.25;;
58926;SDS011;44712;52.530;9.760;2022-08-30T06:24:26;13.60;;;7.68;;
58926;SDS011;44712;52.530;9.760;2022-08-30T06:27:13;12.02;;;7.18;;
58926;SDS011;44712;52.530;9.760;2022-08-30T06:29:40;11.52;;;6.72;;
58926;SDS011;44712;52.530;9.760;2022-08-30T06:32:07;11.88;;;7.15;;
58926;SDS011;44712;52.530;9.760;2022-08-30T06:34:34;11.27;;;6.57;;
58926;SDS011;44712;52.530;9.760;2022-08-30T06:37:00;12.52;;;6.93;;
58926;SDS011;44712;52.530;9.760;2022-08-30T06:39:27;14.95;;;6.97;;
58926;SDS011;44712;52.530;9.760;2022-08-30T06:41:53;12.52;;;6.82;;
58926;SDS011;44712;52.530;9.760;2022-08-30T06:44:28;11.93;;;6.53;;
58926;SDS011;44712;52.530;9.760;2022-08-30T06:46:55;10.40;;;5.97;;
58926;SDS011;44712;52.530;9.760;2022-08-30T06:49:22;12.48;;;6.35;;
58926;SDS011;44712;52.530;9.760;2022-08-30T06:51:48;12.77;;;7.20;;
58926;SDS011;44712;52.530;9.760;2022-08-30T06:54:16;13.75;;;6.65;;
58926;SDS011;44712;52.530;9.760;2022-08-30T06:56:43;12.27;;;7.13;;
58926;SDS011;44712;52.530;9.760;2022-08-30T06:59:23;14.02;;;6.72;;
58926;SDS011;44712;52.530;9.760;2022-08-30T07:01:52;10.15;;;6.72;;
58926;SDS011;44712;52.530;9.760;2022-08-30T07:04:19;12.85;;;6.53;;
58926;SDS011;44712;52.530;9.760;2022-08-30T07:06:46;12.20;;;6.90;;
58926;SDS011;44712;52.530;9.760;2022-08-30T07:09:12;10.32;;;6.82;;
58926;SDS011;44712;52.530;9.760;2022-08-30T07:11:39;10.10;;;5.57;;
58926;SDS011;44712;52.530;9.760;2022-08-30T07:14:06;9.35;;;6.03;;
58926;SDS011;44712;52.530;9.760;2022-08-30T07:16:33;9.68;;;5.82;;
58926;SDS011;44712;52.530;9.760;2022-08-30T07:18:59;8.57;;;5.63;;
58926;SDS011;44712;52.530;9.760;2022-08-30T07:21:32;9.82;;;6.22;;
58926;SDS011;44712;52.530;9.760;2022-08-30T07:24:01;9.75;;;5.35;;
58926;SDS011;44712;52.530;9.760;2022-08-30T07:26:41;13.83;;;7.80;;
58926;SDS011;44712;52.530;9.760;2022-08-30T07:29:12;10.50;;;6.45;;
58926;SDS011;44712;52.530;9.760;2022-08-30T07:31:39;8.30;;;5.68;;
58926;SDS011;44712;52.530;9.760;2022-08-30T07:34:06;10.38;;;6.55;;
58926;SDS011;44712;52.530;9.760;2022-08-30T07:36:35;9.45;;;5.88;;
58926;SDS011;44712;52.530;9.760;2022-08-30T07:39:05;10.52;;;5.88;;
58926;SDS011;44712;52.530;9.760;2022-08-30T07:41:37;10.05;;;6.93;;
58926;SDS011;44712;52.530;9.760;2022-08-30T07:44:07;11.10;;;7.22;;
58926;SDS011;44712;52.530;9.760;2022-08-30T07:46:38;9.73;;;6.75;;
58926;SDS011;44712;52.530;9.760;2022-08-30T07:49:06;9.65;;;5.95;;
58926;SDS011;44712;52.530;9.760;2022-08-30T07:51:37;11.07;;;7.10;;
58926;SDS011;44712;52.530;9.760;2022-08-30T07:54:04;11.40;;;6.70;;
58926;SDS011;44712;52.530;9.760;2022-08-30T07:56:33;11.23;;;6.82;;
58926;SDS011;44712;52.530;9.760;2022-08-30T07:59:01;9.73;;;6.22;;
58926;SDS011;44712;52.530;9.760;2022-08-30T08:01:28;10.65;;;6.90;;
58926;SDS011;44712;52.530;9.760;2022-08-30T08:03:54;10.40;;;6.90;;
58926;SDS011;44712;52.530;9.760;2022-08-30T08:06:23;11.13;;;6.85;;
58926;SDS011;44712;52.530;9.760;2022-08-30T08:08:50;11.40;;;6.30;;
58926;SDS011;44712;52.530;9.760;2022-08-30T08:11:20;10.73;;;6.50;;
58926;SDS011;44712;52.530;9.760;2022-08-30T08:13:57;11.50;;;6.30;;
58926;SDS011;44712;52.530;9.760;2022-08-30T08:16:24;9.30;;;6.38;;
58926;SDS011;44712;52.530;9.760;2022-08-30T08:18:52;9.65;;;5.97;;
58926;SDS011;44712;52.530;9.760;2022-08-30T08:21:20;9.73;;;6.53;;
58926;SDS011;44712;52.530;9.760;2022-08-30T08:23:48;11.85;;;7.15;;
58926;SDS011;44712;52.530;9.760;2022-08-30T08:26:15;11.52;;;6.63;;
58926;SDS011;44712;52.530;9.760;2022-08-30T08:28:42;11.18;;;6.38;;
58926;SDS011;44712;52.530;9.760;2022-08-30T08:31:17;10.20;;;6.07;;
58926;SDS011;44712;52.530;9.760;2022-08-30T08:33:46;8.95;;;6.05;;
58926;SDS011;44712;52.530;9.760;2022-08-30T08:36:13;10.65;;;6.88;;
58926;SDS011;44712;52.530;9.760;2022-08-30T08:38:42;10.32;;;6.70;;
58926;SDS011;44712;52.530;9.760;2022-08-30T08:44:07;10.25;;;6.60;;
58926;SDS011;44712;52.530;9.760;2022-08-30T08:46:48;9.65;;;5.90;;
58926;SDS011;44712;52.530;9.760;2022-08-30T08:49:24;9.98;;;6.60;;
58926;SDS011;44712;52.530;9.760;2022-08-30T08:51:50;10.13;;;6.63;;
58926;SDS011;44712;52.530;9.760;2022-08-30T08:54:41;10.55;;;7.13;;
58926;SDS011;44712;52.530;9.760;2022-08-30T08:57:12;9.30;;;6.18;;
58926;SDS011;44712;52.530;9.760;2022-08-30T08:59:43;11.85;;;7.68;;
58926;SDS011;44712;52.530;9.760;2022-08-30T09:02:22;10.35;;;6.70;;
58926;SDS011;44712;52.530;9.760;2022-08-30T09:05:00;11.50;;;7.53;;
58926;SDS011;44712;52.530;9.760;2022-08-30T09:07:33;10.02;;;7.35;;
58926;SDS011;44712;52.530;9.760;2022-08-30T09:10:05;10.85;;;7.25;;
58926;SDS011;44712;52.530;9.760;2022-08-30T09:12:33;11.13;;;7.30;;
58926;SDS011;44712;52.530;9.760;2022-08-30T09:15:08;10.02;;;6.93;;
58926;SDS011;44712;52.530;9.760;2022-08-30T09:17:53;10.30;;;7.32;;
58926;SDS011;44712;52.530;9.760;2022-08-30T09:20:25;10.90;;;7.65;;
58926;SDS011;44712;52.530;9.760;2022-08-30T09:22:57;11.25;;;7.70;;
58926;SDS011;44712;52.530;9.760;2022-08-30T09:25:36;9.68;;;6.90;;
58926;SDS011;44712;52.530;9.760;2022-08-30T09:28:10;8.93;;;6.85;;
58926;SDS011;44712;52.530;9.760;2022-08-30T09:30:38;10.02;;;6.55;;
58926;SDS011;44712;52.530;9.760;2022-08-30T09:33:14;9.70;;;7.05;;
58926;SDS011;44712;52.530;9.760;2022-08-30T09:35:45;8.10;;;6.25;;
58926;SDS011;44712;52.530;9.760;2022-08-30T09:38:19;6.25;;;5.50;;
58926;SDS011;44712;52.530;9.760;2022-08-30T09:40:56;6.53;;;5.55;;
58926;SDS011;44712;52.530;9.760;2022-08-30T09:43:26;12.38;;;6.00;;
58926;SDS011;44712;52.530;9.760;2022-08-30T09:57:10;6.45;;;5.07;;
58926;SDS011;44712;52.530;9.760;2022-08-30T10:08:20;7.05;;;5.78;;
58926;SDS011;44712;52.530;9.760;2022-08-30T10:11:12;6.80;;;5.47;;
58926;SDS011;44712;52.530;9.760;2022-08-30T10:19:19;5.50;;;4.78;;
58926;SDS011;44712;52.530;9.760;2022-08-30T10:22:05;6.47;;;4.63;;
58926;SDS011;44712;52.530;9.760;2022-08-30T10:24:50;4.85;;;4.30;;
58926;SDS011;44712;52.530;9.760;2022-08-30T10:27:28;4.85;;;4.38;;
58926;SDS011;44712;52.530;9.760;2022-08-30T10:30:02;8.18;;;4.82;;
58926;SDS011;44712;52.530;9.760;2022-08-30T10:32:37;4.63;;;3.67;;
58926;SDS011;44712;52.530;9.760;2022-08-30T10:35:21;3.42;;;3.13;;
58926;SDS011;44712;52.530;9.760;2022-08-30T10:37:51;3.88;;;3.35;;
58926;SDS011;44712;52.530;9.760;2022-08-30T10:40:26;4.15;;;3.20;;
58926;SDS011;44712;52.530;9.760;2022-08-30T10:47:10;4.05;;;2.90;;
58926;SDS011;44712;52.530;9.760;2022-08-30T10:49:28;3.65;;;2.60;;
58926;SDS011;44712;52.530;9.760;2022-08-30T10:52:21;2.97;;;2.47;;
58926;SDS011;44712;52.530;9.760;2022-08-30T10:54:56;3.00;;;2.72;;
58926;SDS011;44712;52.530;9.760;2022-08-30T10:57:26;3.47;;;2.72;;
58926;SDS011;44712;52.530;9.760;2022-08-30T10:59:59;2.83;;;2.63;;
58926;SDS011;44712;52.530;9.760;2022-08-30T11:07:59;4.55;;;3.20;;
58926;SDS011;44712;52.530;9.760;2022-08-30T11:11:06;5.70;;;2.63;;
58926;SDS011;44712;52.530;9.760;2022-08-30T11:14:00;2.33;;;2.13;;
58926;SDS011;44712;52.530;9.760;2022-08-30T11:19:12;2.10;;;1.83;;
58926;SDS011;44712;52.530;9.760;2022-08-30T11:21:46;2.63;;;2.30;;
58926;SDS011;44712;52.530;9.760;2022-08-30T11:24:16;2.45;;;2.25;;
58926;SDS011;44712;52.530;9.760;2022-08-30T11:31:57;1.92;;;1.73;;
58926;SDS011;44712;52.530;9.760;2022-08-30T11:42:46;1.70;;;1.50;;
58926;SDS011;44712;52.530;9.760;2022-08-30T11:59:31;1.67;;;1.58;;
58926;SDS011;44712;52.530;9.760;2022-08-30T12:02:05;1.80;;;1.60;;
58926;SDS011;44712;52.530;9.760;2022-08-30T12:04:42;1.80;;;1.40;;
58926;SDS011;44712;52.530;9.760;2022-08-30T12:10:35;2.42;;;1.40;;
58926;SDS011;44712;52.530;9.760;2022-08-30T12:13:07;1.38;;;1.27;;
58926;SDS011;44712;52.530;9.760;2022-08-30T12:18:30;1.45;;;1.35;;
58926;SDS011;44712;52.530;9.760;2022-08-30T12:21:25;1.55;;;1.20;;
58926;SDS011;44712;52.530;9.760;2022-08-30T12:24:04;1.45;;;1.20;;
58926;SDS011;44712;52.530;9.760;2022-08-30T12:32:04;1.40;;;1.30;;
58926;SDS011;44712;52.530;9.760;2022-08-30T12:37:31;1.67;;;1.30;;
58926;SDS011;44712;52.530;9.760;2022-08-30T12:40:00;3.33;;;1.50;;
58926;SDS011;44712;52.530;9.760;2022-08-30T12:42:33;3.42;;;2.08;;
58926;SDS011;44712;52.530;9.760;2022-08-30T12:45:04;2.40;;;1.40;;
58926;SDS011;44712;52.530;9.760;2022-08-30T12:47:42;1.40;;;1.30;;
58926;SDS011;44712;52.530;9.760;2022-08-30T12:50:15;1.35;;;1.20;;
58926;SDS011;44712;52.530;9.760;2022-08-30T12:52:55;1.75;;;1.58;;
58926;SDS011;44712;52.530;9.760;2022-08-30T12:55:50;1.60;;;1.38;;
58926;SDS011;44712;52.530;9.760;2022-08-30T13:06:53;1.70;;;1.45;;
58926;SDS011;44712;52.530;9.760;2022-08-30T13:09:32;1.70;;;1.52;;
58926;SDS011;44712;52.530;9.760;2022-08-30T13:12:00;2.03;;;1.73;;
58926;SDS011;44712;52.530;9.760;2022-08-30T13:14:40;1.70;;;1.40;;
58926;SDS011;44712;52.530;9.760;2022-08-30T13:17:19;1.50;;;1.40;;
58926;SDS011;44712;52.530;9.760;2022-08-30T13:22:35;2.15;;;1.30;;
58926;SDS011;44712;52.530;9.760;2022-08-30T13:25:08;1.50;;;1.40;;
58926;SDS011;44712;52.530;9.760;2022-08-30T13:27:36;1.92;;;1.65;;
58926;SDS011;44712;52.530;9.760;2022-08-30T13:30:06;1.70;;;1.27;;
58926;SDS011;44712;52.530;9.760;2022-08-30T13:32:39;1.60;;;1.50;;
58926;SDS011;44712;52.530;9.760;2022-08-30T13:35:06;1.70;;;1.42;;
58926;SDS011;44712;52.530;9.760;2022-08-30T13:37:33;2.88;;;1.45;;
58926;SDS011;44712;52.530;9.760;2022-08-30T13:42:45;1.95;;;1.25;;
58926;SDS011;44712;52.530;9.760;2022-08-30T13:45:13;1.50;;;1.30;;
58926;SDS011;44712;52.530;9.760;2022-08-30T13:48:00;2.25;;;1.40;;
58926;SDS011;44712;52.530;9.760;2022-08-30T13:50:27;1.73;;;1.20;;
58926;SDS011;44712;52.530;9.760;2022-08-30T13:52:56;1.80;;;1.40;;
58926;SDS011;44712;52.530;9.760;2022-08-30T13:55:23;2.13;;;1.48;;
58926;SDS011;44712;52.530;9.760;2022-08-30T13:57:50;1.63;;;1.10;;
58926;SDS011;44712;52.530;9.760;2022-08-30T14:00:21;1.92;;;1.15;;
58926;SDS011;44712;52.530;9.760;2022-08-30T14:02:49;1.20;;;1.10;;
58926;SDS011;44712;52.530;9.760;2022-08-30T14:05:22;1.58;;;1.20;;
58926;SDS011;44712;52.530;9.760;2022-08-30T14:08:15;4.03;;;1.50;;
58926;SDS011;44712;52.530;9.760;2022-08-30T14:11:04;2.70;;;1.50;;
58926;SDS011;44712;52.530;9.760;2022-08-30T14:13:31;1.58;;;1.25;;
58926;SDS011;44712;52.530;9.760;2022-08-30T14:15:58;2.55;;;1.40;;
58926;SDS011;44712;52.530;9.760;2022-08-30T14:18:47;1.58;;;1.42;;
58926;SDS011;44712;52.530;9.760;2022-08-30T14:21:14;1.60;;;1.40;;
58926;SDS011;44712;52.530;9.760;2022-08-30T14:23:41;2.17;;;1.40;;
58926;SDS011;44712;52.530;9.760;2022-08-30T14:26:09;1.52;;;1.00;;
58926;SDS011;44712;52.530;9.760;2022-08-30T14:28:43;1.45;;;1.30;;
58926;SDS011;44712;52.530;9.760;2022-08-30T14:31:10;1.20;;;1.00;;
58926;SDS011;44712;52.530;9.760;2022-08-30T14:33:38;1.73;;;1.10;;
58926;SDS011;44712;52.530;9.760;2022-08-30T14:36:11;1.92;;;1.30;;
58926;SDS011;44712;52.530;9.760;2022-08-30T14:38:41;1.20;;;0.98;;
58926;SDS011;44712;52.530;9.760;2022-08-30T14:41:09;1.10;;;0.90;;
58926;SDS011;44712;52.530;9.760;2022-08-30T14:43:36;1.40;;;1.17;;
58926;SDS011;44712;52.530;9.760;2022-08-30T14:46:06;2.00;;;1.30;;
58926;SDS011;44712;52.530;9.760;2022-08-30T14:48:34;1.20;;;1.08;;
58926;SDS011;44712;52.530;9.760;2022-08-30T14:51:02;1.67;;;1.30;;
58926;SDS011;44712;52.530;9.760;2022-08-30T14:53:37;1.73;;;1.13;;
58926;SDS011;44712;52.530;9.760;2022-08-30T14:56:11;1.30;;;1.20;;
58926;SDS011;44712;52.530;9.760;2022-08-30T14:58:39;1.75;;;1.00;;
58926;SDS011;44712;52.530;9.760;2022-08-30T15:01:06;1.58;;;1.05;;
58926;SDS011;44712;52.530;9.760;2022-08-30T15:03:35;1.70;;;1.00;;
58926;SDS011;44712;52.530;9.760;2022-08-30T15:06:03;1.80;;;1.13;;
58926;SDS011;44712;52.530;9.760;2022-08-30T15:08:30;1.40;;;1.00;;
58926;SDS011;44712;52.530;9.760;2022-08-30T15:10:58;1.88;;;1.05;;
58926;SDS011;44712;52.530;9.760;2022-08-30T15:13:26;1.50;;;1.10;;
58926;SDS011;44712;52.530;9.760;2022-08-30T15:15:53;1.55;;;0.90;;
58926;SDS011;44712;52.530;9.760;2022-08-30T15:18:20;1.30;;;1.00;;
58926;SDS011;44712;52.530;9.760;2022-08-30T15:20:49;1.50;;;0.80;;
58926;SDS011;44712;52.530;9.760;2022-08-30T15:23:17;1.50;;;0.93;;
58926;SDS011;44712;52.530;9.760;2022-08-30T15:25:50;1.67;;;0.93;;
58926;SDS011;44712;52.530;9.760;2022-08-30T15:28:18;1.77;;;1.00;;
58926;SDS011;44712;52.530;9.760;2022-08-30T15:30:45;1.10;;;0.80;;
58926;SDS011;44712;52.530;9.760;2022-08-30T15:33:12;1.15;;;0.90;;
58926;SDS011;44712;52.530;9.760;2022-08-30T15:35:40;1.77;;;1.20;;
58926;SDS011;44712;52.530;9.760;2022-08-30T15:38:06;2.58;;;0.93;;
58926;SDS011;44712;52.530;9.760;2022-08-30T15:40:35;1.67;;;0.80;;
58926;SDS011;44712;52.530;9.760;2022-08-30T15:43:02;1.25;;;0.90;;
58926;SDS011;44712;52.530;9.760;2022-08-30T15:45:30;1.55;;;1.30;;
58926;SDS011;44712;52.530;9.760;2022-08-30T15:47:58;1.27;;;1.08;;
58926;SDS011;44712;52.530;9.760;2022-08-30T15:50:25;1.52;;;1.00;;
58926;SDS011;44712;52.530;9.760;2022-08-30T15:52:53;1.10;;;0.90;;
58926;SDS011;44712;52.530;9.760;2022-08-30T15:55:22;1.38;;;0.98;;
58926;SDS011;44712;52.530;9.760;2022-08-30T15:57:48;1.75;;;0.90;;
58926;SDS011;44712;52.530;9.760;2022-08-30T16:00:16;1.15;;;0.90;;
58926;SDS011;44712;52.530;9.760;2022-08-30T16:02:43;1.73;;;1.23;;
58926;SDS011;44712;52.530;9.760;2022-08-30T16:05:13;1.20;;;1.05;;
58926;SDS011;44712;52.530;9.760;2022-08-30T16:07:40;1.33;;;0.80;;
58926;SDS011;44712;52.530;9.760;2022-08-30T16:10:07;1.15;;;1.00;;
58926;SDS011;44712;52.530;9.760;2022-08-30T16:12:34;1.73;;;1.05;;
58926;SDS011;44712;52.530;9.760;2022-08-30T16:15:01;1.58;;;1.00;;
58926;SDS011;44712;52.530;9.760;2022-08-30T16:17:28;4.57;;;1.05;;
58926;SDS011;44712;52.530;9.760;2022-08-30T16:19:58;2.10;;;1.67;;
58926;SDS011;44712;52.530;9.760;2022-08-30T16:22:27;2.38;;;1.10;;
58926;SDS011;44712;52.530;9.760;2022-08-30T16:24:55;2.50;;;1.00;;
58926;SDS011;44712;52.530;9.760;2022-08-30T16:27:22;1.20;;;1.00;;
58926;SDS011;44712;52.530;9.760;2022-08-30T16:29:50;1.23;;;1.02;;
58926;SDS011;44712;52.530;9.760;2022-08-30T16:32:16;1.67;;;0.80;;
58926;SDS011;44712;52.530;9.760;2022-08-30T16:34:44;1.30;;;1.08;;
58926;SDS011;44712;52.530;9.760;2022-08-30T16:37:11;1.55;;;0.80;;
58926;SDS011;44712;52.530;9.760;2022-08-30T16:39:38;1.40;;;1.20;;
58926;SDS011;44712;52.530;9.760;2022-08-30T16:42:11;1.35;;;0.98;;